KMLJ/MLJ METAR and TAF weather

Enter ICAO airport designator
Station Type Date Time Source
KMLJ METAR 2020/10/29 17:38 UTC NOAA

KMLJ 291738Z AUTO 24003KT 10SM BKN030 BKN040 OVC070 29/23 A2972 RMK AO2


Station Type Date Time Source
KMLJ Decoded METAR 2020/10/29 17:38 UTC NOAA

Milledgeville, Baldwin County Airport, GA, United States (KMLJ) 33-09-15N 083-14-26W
Oct 29, 2020 - 01:38 PM EDT / 2020.10.29 1738 UTC
Wind: from the WSW (240 degrees) at 3 MPH (3 KT):0
Visibility: 10 mile(s):0
Sky conditions: overcast
Temperature: 84 F (29 C)
Dew Point: 73 F (23 C)
Relative Humidity: 70%
Pressure (altimeter): 29.72 in. Hg (1006 hPa)
ob: KMLJ 291738Z AUTO 24003KT 10SM BKN030 BKN040 OVC070 29/23 A2972 RMK AO2
cycle: 17

Station Type Date Time Source
KMLJ TAF UTC NOAA

Error!

Example: see airport list